createdAt,value
2017-12-22T00:01:33.828Z,9.57
2017-12-22T00:04:01.326Z,9.73
2017-12-22T00:06:30.054Z,9.66
2017-12-22T00:08:57.580Z,9.59
2017-12-22T00:11:26.103Z,9.53
2017-12-22T00:13:53.865Z,9.53
2017-12-22T00:16:21.370Z,9.65
2017-12-22T00:18:49.388Z,9.65
2017-12-22T00:21:17.228Z,9.61
2017-12-22T00:23:44.740Z,9.54
2017-12-22T00:26:12.276Z,9.70
2017-12-22T00:28:40.010Z,9.68
2017-12-22T00:31:07.509Z,9.58
2017-12-22T00:33:35.062Z,9.69
2017-12-22T00:36:02.614Z,9.49
2017-12-22T00:38:30.132Z,9.39
2017-12-22T00:40:57.641Z,9.36
2017-12-22T00:43:25.599Z,9.31
2017-12-22T00:46:03.094Z,9.35
2017-12-22T00:48:30.728Z,9.31
2017-12-22T00:50:58.245Z,9.32
2017-12-22T00:53:25.802Z,9.48
2017-12-22T00:55:53.441Z,9.27
2017-12-22T00:58:20.992Z,9.37
2017-12-22T01:00:48.496Z,9.43
2017-12-22T01:03:16.190Z,9.60
2017-12-22T01:05:43.685Z,9.51
2017-12-22T01:08:11.190Z,9.69
2017-12-22T01:10:39.091Z,9.80
2017-12-22T01:13:07.305Z,9.84
2017-12-22T01:15:40.589Z,9.94
2017-12-22T01:18:13.757Z,9.67
2017-12-22T01:20:41.615Z,9.43
2017-12-22T01:23:10.097Z,9.62
2017-12-22T01:25:37.604Z,9.74
2017-12-22T01:28:05.297Z,9.50
2017-12-22T01:30:32.797Z,9.43
2017-12-22T01:33:00.333Z,9.56
2017-12-22T01:35:28.269Z,9.41
2017-12-22T01:37:55.778Z,9.50
2017-12-22T01:40:23.277Z,9.45
2017-12-22T01:42:50.809Z,9.49
2017-12-22T01:45:18.314Z,9.53
2017-12-22T01:47:45.822Z,9.71
2017-12-22T01:50:13.956Z,9.68
2017-12-22T01:52:41.461Z,9.66
2017-12-22T01:55:08.980Z,9.75
2017-12-22T01:57:36.700Z,9.49
2017-12-22T02:00:04.206Z,9.38
2017-12-22T02:02:31.709Z,9.31
2017-12-22T02:04:59.523Z,9.22
2017-12-22T02:07:27.017Z,9.13
2017-12-22T02:09:54.537Z,9.19
2017-12-22T02:12:22.507Z,9.33
2017-12-22T02:14:50.001Z,9.32
2017-12-22T02:17:17.523Z,9.21
2017-12-22T02:19:45.083Z,9.22
2017-12-22T02:22:12.582Z,9.26
2017-12-22T02:24:40.201Z,9.43
2017-12-22T02:27:07.758Z,9.33
2017-12-22T02:29:35.255Z,9.39
2017-12-22T02:32:02.778Z,9.31
2017-12-22T02:34:30.744Z,9.30
2017-12-22T02:36:58.237Z,9.39
2017-12-22T02:39:25.744Z,9.35
2017-12-22T02:41:53.299Z,9.50
2017-12-22T02:44:20.809Z,9.39
2017-12-22T02:46:48.322Z,9.52
2017-12-22T02:49:15.995Z,9.38
2017-12-22T02:51:43.566Z,9.39
2017-12-22T02:54:11.169Z,9.34
2017-12-22T02:56:38.981Z,9.18
2017-12-22T02:59:06.477Z,9.24
2017-12-22T03:01:33.981Z,9.42
2017-12-22T03:04:01.657Z,9.18
2017-12-22T03:06:29.157Z,9.18
2017-12-22T03:08:56.675Z,9.04
2017-12-22T03:11:24.231Z,9.30
2017-12-22T03:13:51.733Z,9.30
2017-12-22T03:16:19.248Z,9.43
2017-12-22T03:18:46.928Z,9.31
2017-12-22T03:21:14.468Z,9.21
2017-12-22T03:23:41.971Z,9.29
2017-12-22T03:26:09.689Z,9.15
2017-12-22T03:28:37.248Z,9.27
2017-12-22T03:31:04.746Z,9.23
2017-12-22T03:33:32.305Z,9.30
2017-12-22T03:35:59.801Z,9.41
2017-12-22T03:38:27.405Z,9.40
2017-12-22T03:40:54.938Z,9.56
2017-12-22T03:43:22.434Z,9.58
2017-12-22T03:45:49.934Z,9.31
2017-12-22T03:48:17.517Z,9.37
2017-12-22T03:50:45.018Z,9.70
2017-12-22T03:53:12.524Z,9.79
2017-12-22T03:55:40.065Z,9.85
2017-12-22T03:58:07.570Z,9.79
2017-12-22T04:00:35.108Z,9.67
2017-12-22T04:03:02.665Z,9.82
2017-12-22T04:05:30.170Z,9.85
2017-12-22T04:07:57.680Z,9.78
2017-12-22T04:10:25.368Z,9.68
2017-12-22T04:12:52.881Z,9.69
2017-12-22T04:15:20.386Z,9.71
2017-12-22T04:17:47.937Z,9.43
2017-12-22T04:20:15.477Z,9.65
2017-12-22T04:22:43.039Z,9.45
2017-12-22T04:25:10.538Z,9.44
2017-12-22T04:27:38.046Z,9.65
2017-12-22T04:30:05.554Z,9.72
2017-12-22T04:32:33.241Z,9.79
2017-12-22T04:35:00.741Z,9.79
2017-12-22T04:37:28.289Z,9.62
2017-12-22T04:39:56.019Z,9.66
2017-12-22T04:42:23.527Z,9.71
2017-12-22T04:44:51.025Z,9.64
2017-12-22T04:47:18.831Z,9.51
2017-12-22T04:49:46.493Z,9.55
2017-12-22T04:52:14.201Z,9.53
2017-12-22T04:54:42.141Z,9.38
2017-12-22T04:57:09.683Z,9.20
2017-12-22T04:59:37.190Z,9.15
2017-12-22T05:02:04.902Z,9.20
2017-12-22T05:04:32.409Z,8.86
2017-12-22T05:06:59.925Z,8.93
2017-12-22T05:09:27.785Z,8.90
2017-12-22T05:11:55.293Z,9.09
2017-12-22T05:14:22.829Z,8.77
2017-12-22T05:16:50.366Z,8.85
2017-12-22T05:19:17.920Z,9.03
2017-12-22T05:21:45.432Z,9.01
2017-12-22T05:24:13.061Z,8.87
2017-12-22T05:26:40.596Z,8.91
2017-12-22T05:29:08.102Z,8.53
2017-12-22T05:31:35.662Z,8.65
2017-12-22T05:34:03.173Z,8.65
2017-12-22T05:36:30.733Z,8.34
2017-12-22T05:38:58.426Z,8.49
2017-12-22T05:41:25.956Z,8.44
2017-12-22T05:43:53.528Z,8.54
2017-12-22T05:46:22.298Z,8.26
2017-12-22T05:48:50.369Z,8.69
2017-12-22T05:51:17.885Z,8.68
2017-12-22T05:53:45.591Z,8.63
2017-12-22T05:56:13.168Z,8.66
2017-12-22T05:58:40.707Z,8.41
2017-12-22T06:01:08.471Z,8.40
2017-12-22T06:03:35.978Z,8.58
2017-12-22T06:06:03.486Z,8.71
2017-12-22T06:08:31.041Z,8.54
2017-12-22T06:10:58.544Z,9.03
2017-12-22T06:13:26.049Z,8.73
2017-12-22T06:15:53.826Z,8.69
2017-12-22T06:18:21.388Z,8.81
2017-12-22T06:20:48.898Z,8.98
2017-12-22T06:23:16.580Z,9.27
2017-12-22T06:25:44.118Z,9.27
2017-12-22T06:28:11.633Z,9.08
2017-12-22T06:30:39.179Z,9.18
2017-12-22T06:33:06.866Z,9.16
2017-12-22T06:35:34.401Z,8.66
2017-12-22T06:38:02.119Z,8.74
2017-12-22T06:40:29.621Z,8.83
2017-12-22T06:42:57.125Z,8.97
2017-12-22T06:45:24.669Z,8.87
2017-12-22T06:47:52.177Z,8.70
2017-12-22T06:50:19.690Z,8.77
2017-12-22T06:52:47.398Z,9.11
2017-12-22T06:55:14.907Z,8.43
2017-12-22T06:57:42.433Z,8.70
2017-12-22T07:00:10.402Z,8.51
2017-12-22T07:02:37.910Z,8.64
2017-12-22T07:05:05.425Z,8.38
2017-12-22T07:07:32.975Z,8.52
2017-12-22T07:10:00.481Z,8.39
2017-12-22T07:12:27.997Z,8.64
2017-12-22T07:14:55.557Z,8.61
2017-12-22T07:17:23.112Z,8.75
2017-12-22T07:19:50.670Z,8.56
2017-12-22T07:22:18.432Z,8.85
2017-12-22T07:24:45.932Z,8.57
2017-12-22T07:27:13.466Z,9.02
2017-12-22T07:29:41.046Z,8.82
2017-12-22T07:32:08.552Z,9.06
2017-12-22T07:34:36.061Z,8.85
2017-12-22T07:37:03.787Z,8.80
2017-12-22T07:39:31.304Z,8.97
2017-12-22T07:41:58.906Z,9.35
2017-12-22T07:44:26.803Z,9.02
2017-12-22T07:46:54.331Z,8.91
2017-12-22T07:49:21.842Z,9.05
2017-12-22T07:51:49.392Z,8.80
2017-12-22T07:54:17.008Z,9.20
2017-12-22T07:56:44.568Z,8.90
2017-12-22T07:59:12.299Z,8.83
2017-12-22T08:01:39.808Z,8.65
2017-12-22T08:04:07.304Z,8.90
2017-12-22T08:06:35.735Z,9.13
2017-12-22T08:09:03.241Z,9.16
2017-12-22T08:11:30.750Z,9.44
2017-12-22T08:13:58.286Z,9.34
2017-12-22T08:16:25.790Z,8.85
2017-12-22T08:18:53.349Z,9.21
2017-12-22T08:21:21.059Z,9.18
2017-12-22T08:23:48.561Z,9.60
2017-12-22T08:26:16.095Z,9.25
2017-12-22T08:28:43.637Z,9.28
2017-12-22T08:31:11.146Z,9.29
2017-12-22T08:33:38.656Z,9.54
2017-12-22T08:36:06.309Z,9.66
2017-12-22T08:38:33.810Z,9.67
2017-12-22T08:41:01.321Z,9.26
2017-12-22T08:43:28.935Z,9.44
2017-12-22T08:45:56.467Z,9.22
2017-12-22T08:48:23.969Z,9.23
2017-12-22T08:50:51.994Z,9.40
2017-12-22T08:53:19.500Z,9.50
2017-12-22T08:55:47.018Z,9.35
2017-12-22T08:58:14.773Z,9.59
2017-12-22T09:00:42.277Z,9.46
2017-12-22T09:03:09.895Z,9.68
2017-12-22T09:05:37.656Z,9.87
2017-12-22T09:08:05.216Z,9.56
2017-12-22T09:10:32.722Z,9.69
2017-12-22T09:13:00.648Z,9.96
2017-12-22T09:15:28.154Z,10.17
2017-12-22T09:17:55.661Z,10.37
2017-12-22T09:20:23.598Z,10.21
2017-12-22T09:22:51.199Z,9.60
2017-12-22T09:25:18.701Z,9.63
2017-12-22T09:27:46.236Z,8.93
2017-12-22T09:30:13.762Z,9.41
2017-12-22T09:32:41.318Z,9.19
2017-12-22T09:35:08.857Z,9.21
2017-12-22T09:37:36.386Z,9.24
2017-12-22T09:40:03.921Z,9.37
2017-12-22T09:42:31.462Z,9.56
2017-12-22T09:44:59.012Z,9.86
2017-12-22T09:47:26.572Z,9.77
2017-12-22T09:49:54.232Z,9.64
2017-12-22T09:52:21.733Z,9.92
2017-12-22T09:54:49.352Z,9.99
2017-12-22T09:57:17.088Z,10.24
2017-12-22T09:59:44.622Z,10.50
2017-12-22T10:02:12.128Z,9.91
2017-12-22T10:04:39.899Z,10.22
2017-12-22T10:07:07.476Z,9.85
2017-12-22T10:09:34.993Z,10.34
2017-12-22T10:12:02.776Z,10.41
2017-12-22T10:14:30.363Z,10.57
2017-12-22T10:16:57.868Z,10.76
2017-12-22T10:19:25.417Z,10.57
2017-12-22T10:21:52.930Z,10.23
2017-12-22T10:24:20.439Z,10.40
2017-12-22T10:26:48.232Z,10.27
2017-12-22T10:29:15.741Z,10.64
2017-12-22T10:31:43.249Z,10.74
2017-12-22T10:34:10.910Z,10.60
2017-12-22T10:36:38.415Z,10.43
2017-12-22T10:39:05.946Z,10.21
2017-12-22T10:41:33.691Z,10.60
2017-12-22T10:44:01.250Z,10.43
2017-12-22T10:46:28.758Z,10.83
2017-12-22T10:48:56.368Z,11.01
2017-12-22T10:51:23.879Z,11.16
2017-12-22T10:53:51.479Z,11.26
2017-12-22T10:56:19.029Z,11.22
2017-12-22T10:58:46.549Z,11.41
2017-12-22T11:01:14.061Z,11.33
2017-12-22T11:03:41.802Z,11.17
2017-12-22T11:06:09.320Z,11.06
2017-12-22T11:08:36.849Z,10.89
2017-12-22T11:11:04.707Z,11.37
2017-12-22T11:13:32.277Z,11.37
2017-12-22T11:15:59.778Z,11.77
2017-12-22T11:18:27.426Z,11.81
2017-12-22T11:20:55.007Z,11.83
2017-12-22T11:23:22.518Z,11.97
2017-12-22T11:25:50.097Z,12.20
2017-12-22T11:28:17.622Z,12.31
2017-12-22T11:30:45.135Z,12.13
2017-12-22T11:33:12.943Z,12.50
2017-12-22T11:35:40.499Z,11.92
2017-12-22T11:38:07.986Z,12.55
2017-12-22T11:40:35.681Z,12.69
2017-12-22T11:43:03.197Z,12.87
2017-12-22T11:45:31.660Z,12.79
2017-12-22T11:47:59.237Z,13.03
2017-12-22T11:50:26.777Z,13.17
2017-12-22T11:52:54.289Z,13.13
2017-12-22T11:55:21.823Z,13.16
2017-12-22T11:57:49.354Z,13.08
2017-12-22T12:00:16.959Z,12.95
2017-12-22T12:02:45.191Z,13.00
2017-12-22T12:05:12.712Z,12.78
2017-12-22T12:07:40.225Z,12.99
2017-12-22T12:10:07.967Z,13.17
2017-12-22T12:12:35.531Z,12.85
2017-12-22T12:15:03.085Z,13.02
2017-12-22T12:17:30.752Z,13.30
2017-12-22T12:19:58.299Z,13.40
2017-12-22T12:22:25.857Z,13.25
2017-12-22T12:24:53.734Z,13.50
2017-12-22T12:27:21.299Z,13.40
2017-12-22T12:29:48.959Z,13.39
2017-12-22T12:32:16.940Z,13.10
2017-12-22T12:34:44.685Z,12.93
2017-12-22T12:37:12.449Z,13.32
2017-12-22T12:39:40.216Z,13.15
2017-12-22T12:42:08.694Z,12.90
2017-12-22T12:44:36.252Z,12.94
2017-12-22T12:47:03.938Z,12.84
2017-12-22T12:49:31.483Z,12.59
2017-12-22T12:51:59.035Z,12.66
2017-12-22T12:54:26.611Z,12.88
2017-12-22T12:56:54.133Z,12.96
2017-12-22T12:59:21.812Z,12.77
2017-12-22T13:01:49.406Z,12.27
2017-12-22T13:04:17.362Z,12.16
2017-12-22T13:06:44.886Z,12.47
2017-12-22T13:09:12.470Z,12.32
2017-12-22T13:11:40.024Z,12.36
2017-12-22T13:14:07.567Z,12.41
2017-12-22T13:16:35.245Z,12.52
2017-12-22T13:19:02.839Z,12.10
2017-12-22T13:21:30.403Z,11.95
2017-12-22T13:23:58.939Z,11.98
2017-12-22T13:26:26.445Z,11.73
2017-12-22T13:28:53.966Z,12.00
2017-12-22T13:31:21.531Z,11.99
2017-12-22T13:33:49.053Z,11.84
2017-12-22T13:36:16.561Z,12.04
2017-12-22T13:38:44.395Z,11.99
2017-12-22T13:41:11.955Z,12.17
2017-12-22T13:43:39.460Z,12.25
2017-12-22T13:46:07.023Z,12.29
2017-12-22T13:48:34.538Z,12.45
2017-12-22T13:51:03.012Z,12.53
2017-12-22T13:53:30.753Z,12.54
2017-12-22T13:55:58.435Z,12.56
2017-12-22T13:58:25.950Z,12.52
2017-12-22T14:00:53.730Z,12.62
2017-12-22T14:03:21.317Z,12.13
2017-12-22T14:05:48.857Z,12.26
2017-12-22T14:08:16.618Z,11.95
2017-12-22T14:10:44.133Z,11.92
2017-12-22T14:13:11.910Z,11.99
2017-12-22T14:15:39.466Z,11.85
2017-12-22T14:18:06.984Z,11.95
2017-12-22T14:20:34.484Z,11.89
2017-12-22T14:23:02.306Z,11.60
2017-12-22T14:25:29.865Z,11.84
2017-12-22T14:27:57.523Z,11.95
2017-12-22T14:30:25.085Z,11.86
2017-12-22T14:32:52.687Z,11.89
2017-12-22T14:35:20.234Z,11.66
2017-12-22T14:37:47.811Z,11.68
2017-12-22T14:40:15.314Z,11.85
2017-12-22T14:42:42.817Z,11.67
2017-12-22T14:45:10.948Z,11.69
2017-12-22T14:47:38.825Z,11.62
2017-12-22T14:50:06.628Z,11.69
2017-12-22T14:52:34.193Z,11.65
2017-12-22T14:55:01.704Z,11.71
2017-12-22T14:57:29.215Z,11.52
2017-12-22T14:59:56.897Z,11.65
2017-12-22T15:02:24.417Z,11.65
2017-12-22T15:04:51.939Z,11.42
2017-12-22T15:07:19.879Z,11.32
2017-12-22T15:09:47.386Z,11.45
2017-12-22T15:12:14.895Z,11.34
2017-12-22T15:14:42.475Z,11.30
2017-12-22T15:17:10.003Z,11.41
2017-12-22T15:19:37.531Z,11.52
2017-12-22T15:22:05.320Z,11.47
2017-12-22T15:24:32.830Z,11.36
2017-12-22T15:27:00.387Z,11.33
2017-12-22T15:29:28.087Z,11.41
2017-12-22T15:31:55.613Z,11.42
2017-12-22T15:34:23.123Z,11.33
2017-12-22T15:36:50.713Z,11.38
2017-12-22T15:39:18.218Z,11.23
2017-12-22T15:41:45.728Z,11.15
2017-12-22T15:44:13.491Z,11.31
2017-12-22T15:46:41.076Z,11.39
2017-12-22T15:49:08.611Z,11.29
2017-12-22T15:51:36.166Z,11.41
2017-12-22T15:54:03.730Z,11.40
2017-12-22T15:56:31.288Z,11.32
2017-12-22T15:58:59.075Z,11.28
2017-12-22T16:01:26.580Z,11.39
2017-12-22T16:03:54.147Z,11.41
2017-12-22T16:06:21.805Z,11.14
2017-12-22T16:08:51.335Z,11.26
2017-12-22T16:11:20.367Z,11.26
2017-12-22T16:13:51.167Z,11.27
2017-12-22T16:16:18.830Z,11.20
2017-12-22T16:18:46.695Z,11.32
2017-12-22T16:21:15.003Z,11.21
2017-12-22T16:23:42.716Z,11.33
2017-12-22T16:26:10.294Z,11.34
2017-12-22T16:28:38.982Z,11.27
2017-12-22T16:31:06.487Z,11.25
2017-12-22T16:33:34.094Z,11.28
2017-12-22T16:36:02.111Z,11.23
2017-12-22T16:38:29.638Z,11.16
2017-12-22T16:40:57.184Z,11.23
2017-12-22T16:43:25.151Z,11.15
2017-12-22T16:45:52.710Z,11.13
2017-12-22T16:48:20.371Z,11.10
2017-12-22T16:50:47.951Z,11.14
2017-12-22T16:53:15.901Z,11.15
2017-12-22T16:55:43.565Z,11.14
2017-12-22T16:58:15.246Z,11.29
2017-12-22T17:03:20.371Z,11.12
2017-12-22T17:05:50.918Z,11.08
2017-12-22T17:08:18.974Z,11.15
2017-12-22T17:10:48.227Z,11.25
2017-12-22T17:13:16.033Z,11.04
2017-12-22T17:15:44.925Z,11.22
2017-12-22T17:18:16.325Z,11.18
2017-12-22T17:20:47.424Z,11.23
2017-12-22T17:23:17.137Z,11.18
2017-12-22T17:25:45.813Z,11.05
2017-12-22T17:28:13.737Z,11.10
2017-12-22T17:30:41.824Z,11.10
2017-12-22T17:33:09.824Z,11.09
2017-12-22T17:35:38.416Z,11.20
2017-12-22T17:38:07.091Z,11.04
2017-12-22T17:40:37.112Z,11.09
2017-12-22T17:43:05.242Z,10.96
2017-12-22T17:45:33.662Z,11.21
2017-12-22T17:48:01.436Z,11.23
2017-12-22T17:50:34.883Z,11.24
2017-12-22T17:53:04.940Z,11.31
2017-12-22T17:55:33.943Z,11.23
2017-12-22T18:00:44.663Z,11.24
2017-12-22T18:03:33.160Z,11.12
2017-12-22T18:06:02.294Z,11.14
2017-12-22T18:08:31.356Z,11.23
2017-12-22T18:11:14.899Z,11.28
2017-12-22T18:13:42.757Z,11.30
2017-12-22T18:16:13.080Z,11.27
2017-12-22T18:18:42.881Z,11.35
2017-12-22T18:21:12.805Z,11.40
2017-12-22T18:23:45.667Z,11.35
2017-12-22T18:26:14.968Z,11.37
2017-12-22T18:28:43.497Z,11.36
2017-12-22T18:31:13.407Z,11.30
2017-12-22T18:33:42.383Z,11.27
2017-12-22T18:36:10.780Z,11.29
2017-12-22T18:38:38.625Z,11.21
2017-12-22T18:41:16.943Z,11.26
2017-12-22T18:43:45.727Z,11.34
2017-12-22T18:46:14.381Z,11.34
2017-12-22T18:48:44.426Z,11.41
2017-12-22T18:51:15.670Z,11.38
2017-12-22T18:56:22.069Z,11.31
2017-12-22T18:58:53.176Z,11.46
2017-12-22T19:01:22.009Z,11.38
2017-12-22T19:03:52.747Z,11.29
2017-12-22T19:06:22.123Z,11.22
2017-12-22T19:08:50.666Z,11.44
2017-12-22T19:11:19.905Z,11.47
2017-12-22T19:13:47.835Z,11.40
2017-12-22T19:16:17.685Z,11.42
2017-12-22T19:18:45.447Z,11.39
2017-12-22T19:21:13.826Z,11.39
2017-12-22T19:23:41.795Z,11.32
2017-12-22T19:26:09.824Z,11.52
2017-12-22T19:28:37.666Z,11.45
2017-12-22T19:31:05.704Z,11.43
2017-12-22T19:33:33.703Z,11.57
2017-12-22T19:36:01.846Z,11.41
2017-12-22T19:38:30.357Z,11.39
2017-12-22T19:40:58.499Z,11.40
2017-12-22T19:43:26.472Z,11.37
2017-12-22T19:45:54.435Z,11.40
2017-12-22T19:48:26.715Z,11.38
2017-12-22T19:50:54.324Z,11.48
2017-12-22T19:53:21.918Z,11.51
2017-12-22T19:55:50.776Z,11.41
2017-12-22T19:58:18.783Z,11.28
2017-12-22T20:00:47.063Z,11.35
2017-12-22T20:03:26.910Z,11.26
2017-12-22T20:05:55.106Z,11.28
2017-12-22T20:08:24.699Z,11.41
2017-12-22T20:10:53.592Z,11.39
2017-12-22T20:13:23.375Z,11.52
2017-12-22T20:15:51.887Z,11.48
2017-12-22T20:18:20.127Z,11.48
2017-12-22T20:20:48.034Z,11.46
2017-12-22T20:23:16.225Z,11.32
2017-12-22T20:25:44.608Z,11.38
2017-12-22T20:28:15.841Z,11.31
2017-12-22T20:30:45.200Z,11.48
2017-12-22T20:33:13.814Z,11.34
2017-12-22T20:35:42.620Z,11.48
2017-12-22T20:38:11.365Z,11.40
2017-12-22T20:40:42.304Z,11.43
2017-12-22T20:43:11.060Z,11.28
2017-12-22T20:45:40.098Z,11.35
2017-12-22T20:48:08.491Z,11.40
2017-12-22T20:50:37.568Z,11.34
2017-12-22T20:53:06.151Z,11.48
2017-12-22T20:55:34.123Z,11.56
2017-12-22T20:58:02.420Z,11.30
2017-12-22T21:00:30.370Z,11.07
2017-12-22T21:02:58.822Z,11.37
2017-12-22T21:05:27.751Z,11.58
2017-12-22T21:07:55.708Z,11.58
2017-12-22T21:10:23.782Z,11.31
2017-12-22T21:12:52.157Z,11.53
2017-12-22T21:15:19.920Z,11.58
2017-12-22T21:17:49.771Z,11.66
2017-12-22T21:20:18.928Z,11.51
2017-12-22T21:22:46.840Z,11.64
2017-12-22T21:25:14.872Z,11.57
2017-12-22T21:27:43.865Z,11.55
2017-12-22T21:30:11.535Z,11.44
2017-12-22T21:32:39.593Z,11.60
2017-12-22T21:35:08.932Z,11.66
2017-12-22T21:37:36.476Z,11.50
2017-12-22T21:40:04.925Z,11.50
2017-12-22T21:42:32.664Z,11.67
2017-12-22T21:45:01.020Z,11.64
2017-12-22T21:47:28.882Z,11.62
2017-12-22T21:49:56.811Z,11.74
2017-12-22T21:52:24.778Z,11.76
2017-12-22T21:54:52.541Z,11.69
2017-12-22T21:57:21.229Z,11.56
2017-12-22T21:59:49.811Z,11.37
2017-12-22T22:02:17.678Z,11.54
2017-12-22T22:04:46.361Z,11.64
2017-12-22T22:07:14.769Z,11.73
2017-12-22T22:09:43.942Z,11.77
2017-12-22T22:12:12.823Z,11.78
2017-12-22T22:14:40.896Z,11.55
2017-12-22T22:17:08.766Z,11.69
2017-12-22T22:19:38.303Z,11.47
2017-12-22T22:22:07.139Z,11.45
2017-12-22T22:24:35.851Z,11.69
2017-12-22T22:27:05.602Z,11.49
2017-12-22T22:29:33.324Z,11.57
2017-12-22T22:32:00.985Z,11.62
2017-12-22T22:34:28.823Z,11.58
2017-12-22T22:36:56.390Z,11.61
2017-12-22T22:39:24.378Z,11.61
2017-12-22T22:41:52.739Z,11.53
2017-12-22T22:44:20.893Z,11.68
2017-12-22T22:46:48.989Z,11.57
2017-12-22T22:49:17.071Z,11.64
2017-12-22T22:51:45.043Z,11.58
2017-12-22T22:54:13.834Z,11.69
2017-12-22T22:56:41.488Z,11.60
2017-12-22T22:59:09.104Z,11.61
2017-12-22T23:01:36.847Z,11.63
2017-12-22T23:04:04.450Z,11.67
2017-12-22T23:06:31.965Z,11.73
2017-12-22T23:08:59.555Z,11.43
2017-12-22T23:11:27.368Z,11.56
2017-12-22T23:13:54.894Z,11.53
2017-12-22T23:16:22.402Z,11.58
2017-12-22T23:18:50.036Z,11.55
2017-12-22T23:21:17.549Z,11.59
2017-12-22T23:23:45.066Z,11.63
2017-12-22T23:26:12.889Z,11.65
2017-12-22T23:28:40.478Z,11.49
2017-12-22T23:31:07.989Z,11.61
2017-12-22T23:33:35.546Z,11.55
2017-12-22T23:36:03.974Z,11.59
2017-12-22T23:38:31.477Z,11.57
2017-12-22T23:40:59.165Z,11.62
2017-12-22T23:43:26.685Z,11.67
2017-12-22T23:45:54.190Z,11.68
2017-12-22T23:48:21.877Z,11.78
2017-12-22T23:50:49.377Z,11.81
2017-12-22T23:53:16.886Z,11.72
2017-12-22T23:55:44.621Z,11.76
2017-12-22T23:58:12.130Z,11.72
